createdAt,value
2022-12-19T00:01:58.315Z,31.38
2022-12-19T00:04:25.961Z,30.70
2022-12-19T00:06:54.070Z,25.65
2022-12-19T00:09:21.567Z,30.33
2022-12-19T00:11:49.390Z,28.35
2022-12-19T00:14:18.301Z,30.85
2022-12-19T00:16:45.929Z,25.30
2022-12-19T00:19:14.009Z,21.80
2022-12-19T00:21:41.532Z,27.63
2022-12-19T00:24:18.081Z,27.35
2022-12-19T00:26:49.529Z,26.38
2022-12-19T00:29:18.796Z,31.52
2022-12-19T00:31:46.703Z,26.00
2022-12-19T00:34:15.631Z,28.05
2022-12-19T00:36:43.210Z,28.08
2022-12-19T00:39:11.590Z,26.60
2022-12-19T00:41:41.881Z,30.90
2022-12-19T00:44:12.191Z,25.02
2022-12-19T00:46:44.474Z,25.50
2022-12-19T00:49:19.413Z,31.85
2022-12-19T00:51:47.631Z,27.02
2022-12-19T00:54:15.556Z,25.67
2022-12-19T00:56:43.309Z,28.88
2022-12-19T00:59:11.015Z,26.77
2022-12-19T01:01:42.194Z,33.30
2022-12-19T01:04:32.455Z,30.17
2022-12-19T01:07:03.293Z,27.70
2022-12-19T01:09:34.843Z,27.40
2022-12-19T01:12:24.178Z,27.23
2022-12-19T01:14:54.566Z,30.33
2022-12-19T01:17:25.330Z,27.27
2022-12-19T01:19:55.367Z,32.65
2022-12-19T01:22:22.946Z,31.95
2022-12-19T01:24:50.496Z,27.80
2022-12-19T01:27:18.015Z,24.85
2022-12-19T01:29:52.136Z,26.13
2022-12-19T01:32:21.050Z,27.77
2022-12-19T01:34:48.591Z,27.08
2022-12-19T01:37:17.480Z,24.50
2022-12-19T01:39:46.225Z,24.45
2022-12-19T01:42:16.277Z,27.15
2022-12-19T01:45:27.662Z,27.83
2022-12-19T01:48:06.155Z,25.85
2022-12-19T01:50:38.976Z,26.13
2022-12-19T01:53:12.556Z,26.33
2022-12-19T01:55:42.426Z,26.55
2022-12-19T01:58:12.368Z,25.40
2022-12-19T02:00:42.268Z,28.00
2022-12-19T02:03:16.553Z,23.38
2022-12-19T02:05:45.581Z,25.23
2022-12-19T02:08:15.630Z,32.47
2022-12-19T02:10:43.205Z,26.45
2022-12-19T02:13:11.395Z,28.30
2022-12-19T02:15:48.653Z,27.42
2022-12-19T02:18:27.429Z,23.15
2022-12-19T02:21:30.777Z,27.38
2022-12-19T02:24:42.381Z,23.30
2022-12-19T02:27:40.316Z,26.92
2022-12-19T02:30:11.687Z,24.45
2022-12-19T02:32:50.002Z,28.38
2022-12-19T02:35:28.628Z,24.55
2022-12-19T02:38:06.766Z,25.08
2022-12-19T02:40:43.270Z,26.40
2022-12-19T02:43:16.733Z,23.90
2022-12-19T02:45:46.225Z,32.90
2022-12-19T02:48:19.434Z,26.35
2022-12-19T02:50:50.145Z,24.52
2022-12-19T02:53:23.540Z,25.52
2022-12-19T02:56:12.226Z,29.02
2022-12-19T02:58:52.513Z,26.48
2022-12-19T03:01:31.834Z,21.67
2022-12-19T03:04:11.287Z,22.17
2022-12-19T03:06:49.066Z,23.67
2022-12-19T03:09:25.651Z,26.55
2022-12-19T03:12:02.554Z,25.48
2022-12-19T03:14:32.348Z,28.35
2022-12-19T03:17:05.681Z,27.40
2022-12-19T03:19:35.675Z,28.50
2022-12-19T03:22:03.201Z,22.42
2022-12-19T03:24:31.078Z,25.40
2022-12-19T03:27:06.438Z,24.92
2022-12-19T03:29:39.144Z,25.33
2022-12-19T03:32:11.446Z,29.00
2022-12-19T03:34:45.232Z,23.70
2022-12-19T03:37:16.679Z,24.65
2022-12-19T03:39:47.541Z,24.55
2022-12-19T03:42:35.377Z,27.77
2022-12-19T03:45:05.662Z,29.08
2022-12-19T03:47:38.835Z,29.88
2022-12-19T03:50:09.419Z,27.23
2022-12-19T03:52:46.120Z,27.80
2022-12-19T03:55:17.545Z,31.23
2022-12-19T03:57:51.408Z,25.92
2022-12-19T04:00:19.667Z,28.30
2022-12-19T04:02:52.265Z,27.38
2022-12-19T04:05:24.080Z,25.48
2022-12-19T04:07:55.204Z,25.45
2022-12-19T04:10:27.171Z,29.08
2022-12-19T04:13:00.053Z,29.08
2022-12-19T04:15:36.771Z,24.25
2022-12-19T04:18:07.871Z,21.75
2022-12-19T04:20:41.101Z,26.00
2022-12-19T04:23:15.912Z,29.90
2022-12-19T04:25:48.661Z,26.45
2022-12-19T04:28:21.030Z,28.63
2022-12-19T04:30:49.955Z,27.75
2022-12-19T04:33:17.607Z,25.60
2022-12-19T04:35:46.564Z,26.77
2022-12-19T04:38:14.154Z,28.55
2022-12-19T04:40:41.912Z,29.42
2022-12-19T04:43:09.896Z,29.55
2022-12-19T04:45:37.735Z,26.80
2022-12-19T04:48:05.752Z,28.33
2022-12-19T04:50:35.974Z,25.30
2022-12-19T04:53:05.068Z,27.63
2022-12-19T04:55:32.772Z,29.38
2022-12-19T04:58:06.137Z,27.58
2022-12-19T05:00:34.107Z,28.52
2022-12-19T05:03:01.931Z,23.80
2022-12-19T05:05:29.722Z,27.00
2022-12-19T05:08:00.353Z,26.55
2022-12-19T05:10:29.251Z,30.25
2022-12-19T05:12:56.734Z,28.02
2022-12-19T05:15:24.467Z,30.83
2022-12-19T05:17:52.121Z,25.63
2022-12-19T05:20:19.641Z,26.92
2022-12-19T05:22:47.210Z,26.45
2022-12-19T05:25:14.954Z,29.58
2022-12-19T05:27:43.860Z,28.23
2022-12-19T05:30:12.418Z,24.63
2022-12-19T05:32:39.960Z,27.65
2022-12-19T05:35:08.353Z,28.30
2022-12-19T05:37:35.977Z,27.85
2022-12-19T05:40:03.498Z,24.70
2022-12-19T05:42:31.000Z,24.42
2022-12-19T05:44:59.892Z,27.77
2022-12-19T05:47:27.438Z,28.65
2022-12-19T05:49:54.958Z,30.98
2022-12-19T05:52:23.011Z,25.67
2022-12-19T05:54:50.660Z,30.50
2022-12-19T05:57:18.196Z,27.25
2022-12-19T05:59:45.720Z,24.60
2022-12-19T06:02:14.658Z,26.00
2022-12-19T06:04:42.353Z,25.75
2022-12-19T06:07:10.116Z,31.52
2022-12-19T06:09:38.151Z,26.58
2022-12-19T06:12:06.133Z,25.98
2022-12-19T06:14:34.130Z,30.48
2022-12-19T06:17:01.755Z,26.75
2022-12-19T06:19:31.306Z,27.85
2022-12-19T06:21:58.889Z,28.65
2022-12-19T06:24:26.770Z,24.40
2022-12-19T06:26:54.334Z,25.25
2022-12-19T06:29:21.863Z,25.38
2022-12-19T06:31:49.864Z,30.13
2022-12-19T06:34:39.454Z,27.17
2022-12-19T06:37:08.380Z,26.80
2022-12-19T06:39:36.355Z,23.83
2022-12-19T06:42:21.820Z,26.15
2022-12-19T06:44:49.459Z,25.10
2022-12-19T06:47:17.127Z,27.65
2022-12-19T06:49:44.653Z,24.25
2022-12-19T06:52:13.512Z,23.60
2022-12-19T06:54:41.261Z,25.38
2022-12-19T06:57:08.968Z,26.73
2022-12-19T06:59:36.465Z,29.17
2022-12-19T07:02:13.239Z,26.08
2022-12-19T07:04:44.675Z,25.92
2022-12-19T07:07:13.818Z,26.13
2022-12-19T07:09:41.965Z,27.87
2022-12-19T07:12:09.541Z,25.73
2022-12-19T07:14:37.093Z,28.33
2022-12-19T07:17:06.217Z,26.55
2022-12-19T07:19:34.828Z,26.67
2022-12-19T07:22:04.802Z,27.27
2022-12-19T07:24:35.657Z,26.48
2022-12-19T07:27:03.502Z,25.80
2022-12-19T07:29:30.993Z,29.92
2022-12-19T07:31:58.934Z,36.85
2022-12-19T07:34:26.544Z,26.17
2022-12-19T07:36:54.072Z,25.88
2022-12-19T07:39:22.735Z,26.55
2022-12-19T07:41:51.578Z,30.20
2022-12-19T07:44:30.331Z,29.73
2022-12-19T07:46:58.340Z,27.87
2022-12-19T07:49:25.852Z,28.23
2022-12-19T07:51:53.391Z,31.77
2022-12-19T07:54:20.983Z,28.00
2022-12-19T07:56:48.517Z,30.70
2022-12-19T07:59:17.680Z,28.40
2022-12-19T08:01:45.315Z,29.23
2022-12-19T08:04:13.150Z,33.33
2022-12-19T08:06:41.519Z,30.15
2022-12-19T08:09:09.348Z,34.47
2022-12-19T08:11:36.863Z,32.93
2022-12-19T08:14:04.739Z,28.70
2022-12-19T08:16:49.266Z,34.13
2022-12-19T08:19:24.700Z,29.75
2022-12-19T08:21:54.917Z,34.60
2022-12-19T08:24:22.488Z,34.22
2022-12-19T08:26:50.099Z,32.75
2022-12-19T08:29:17.667Z,32.53
2022-12-19T08:31:46.685Z,34.72
2022-12-19T08:34:14.208Z,32.55
2022-12-19T08:36:41.815Z,31.77
2022-12-19T08:39:09.569Z,37.42
2022-12-19T08:41:37.249Z,36.22
2022-12-19T08:44:04.961Z,35.20
2022-12-19T08:46:32.553Z,36.60
2022-12-19T08:49:01.632Z,37.23
2022-12-19T08:51:29.204Z,38.30
2022-12-19T08:53:56.768Z,41.13
2022-12-19T08:56:24.469Z,43.78
2022-12-19T08:58:52.769Z,34.97
2022-12-19T09:01:23.809Z,40.20
2022-12-19T09:05:28.861Z,42.65
2022-12-19T09:06:40.715Z,42.22
2022-12-19T09:09:08.478Z,48.45
2022-12-19T09:11:45.357Z,60.40
2022-12-19T09:14:21.202Z,74.20
2022-12-19T09:16:49.397Z,45.92
2022-12-19T09:19:16.994Z,38.83
2022-12-19T09:21:45.934Z,36.80
2022-12-19T09:24:13.482Z,43.83
2022-12-19T09:26:42.072Z,48.80
2022-12-19T09:29:20.083Z,48.40
2022-12-19T09:31:53.836Z,42.55
2022-12-19T09:34:24.911Z,46.25
2022-12-19T09:37:06.413Z,39.25
2022-12-19T09:39:34.868Z,41.57
2022-12-19T09:42:34.203Z,39.40
2022-12-19T09:45:31.585Z,43.55
2022-12-19T09:48:01.606Z,37.78
2022-12-19T09:50:45.910Z,39.88
2022-12-19T09:53:23.687Z,40.40
2022-12-19T09:55:53.836Z,42.15
2022-12-19T09:58:32.399Z,43.80
2022-12-19T10:01:03.366Z,38.13
2022-12-19T10:03:40.346Z,44.53
2022-12-19T10:07:11.128Z,45.57
2022-12-19T10:10:01.432Z,47.83
2022-12-19T10:12:45.273Z,51.17
2022-12-19T10:15:20.564Z,49.72
2022-12-19T10:18:05.382Z,46.90
2022-12-19T10:20:36.489Z,42.33
2022-12-19T10:23:18.714Z,43.38
2022-12-19T10:26:00.181Z,40.60
2022-12-19T10:28:44.020Z,44.65
2022-12-19T10:31:21.827Z,44.22
2022-12-19T10:33:58.182Z,51.20
2022-12-19T10:36:48.767Z,43.00
2022-12-19T10:39:22.214Z,43.75
2022-12-19T10:41:55.680Z,40.92
2022-12-19T10:44:26.689Z,41.58
2022-12-19T10:46:54.251Z,40.53
2022-12-19T10:49:23.564Z,43.25
2022-12-19T10:51:58.991Z,36.65
2022-12-19T10:54:37.941Z,39.97
2022-12-19T10:57:21.164Z,39.72
2022-12-19T10:59:56.618Z,37.33
2022-12-19T11:02:35.225Z,38.75
2022-12-19T11:05:04.534Z,36.08
2022-12-19T11:07:32.418Z,42.80
2022-12-19T11:10:32.951Z,44.58
2022-12-19T11:18:05.748Z,40.67
2022-12-19T11:22:17.331Z,48.15
2022-12-19T11:29:15.411Z,41.22
2022-12-19T11:29:45.797Z,44.65
2022-12-19T11:29:47.126Z,43.28
2022-12-19T11:30:34.364Z,41.63
2022-12-19T11:33:15.591Z,45.42
2022-12-19T11:35:49.254Z,46.13
2022-12-19T11:38:22.116Z,43.90
2022-12-19T11:40:53.968Z,45.97
2022-12-19T11:43:45.299Z,45.80
2022-12-19T11:46:25.843Z,39.35
2022-12-19T11:48:56.504Z,43.05
2022-12-19T11:51:31.234Z,51.33
2022-12-19T11:54:09.206Z,52.43
2022-12-19T11:56:36.781Z,49.95
2022-12-19T11:59:16.016Z,54.42
2022-12-19T12:01:59.212Z,59.70
2022-12-19T12:04:44.443Z,55.17
2022-12-19T12:07:34.211Z,45.87
2022-12-19T12:15:24.390Z,35.60
2022-12-19T12:24:58.624Z,39.05
2022-12-19T12:28:31.106Z,45.03
2022-12-19T12:31:16.421Z,41.08
2022-12-19T12:31:20.597Z,51.73
2022-12-19T12:31:42.239Z,45.15
2022-12-19T12:32:06.513Z,41.58
2022-12-19T12:35:13.513Z,53.60
2022-12-19T12:35:30.230Z,48.30
2022-12-19T12:39:48.605Z,40.50
2022-12-19T12:42:32.843Z,54.47
2022-12-19T12:45:02.428Z,47.47
2022-12-19T12:47:30.202Z,49.40
2022-12-19T12:50:01.720Z,49.40
2022-12-19T12:52:35.864Z,50.15
2022-12-19T12:55:05.482Z,45.63
2022-12-19T12:57:38.813Z,51.55
2022-12-19T13:00:20.693Z,56.35
2022-12-19T13:02:53.250Z,57.10
2022-12-19T13:05:33.429Z,49.83
2022-12-19T13:08:02.556Z,57.35
2022-12-19T13:10:32.564Z,52.90
2022-12-19T13:13:01.433Z,51.28
2022-12-19T13:15:38.456Z,53.90
2022-12-19T13:18:34.038Z,56.47
2022-12-19T13:21:04.365Z,52.17
2022-12-19T13:23:47.018Z,49.22
2022-12-19T13:26:36.821Z,49.83
2022-12-19T13:29:26.929Z,62.00
2022-12-19T13:32:09.056Z,58.45
2022-12-19T13:34:37.629Z,52.78
2022-12-19T13:39:49.333Z,47.67
2022-12-19T13:40:33.211Z,51.85
2022-12-19T13:43:27.475Z,53.73
2022-12-19T13:45:58.009Z,47.25
2022-12-19T13:48:31.322Z,47.65
2022-12-19T13:51:01.746Z,42.78
2022-12-19T13:53:30.481Z,48.30
2022-12-19T13:56:03.244Z,51.67
2022-12-19T13:58:33.069Z,48.50
2022-12-19T14:01:04.413Z,47.85
2022-12-19T14:03:37.547Z,54.17
2022-12-19T14:06:17.658Z,97.13
2022-12-19T14:09:41.548Z,48.90
2022-12-19T14:12:22.736Z,49.00
2022-12-19T14:14:48.675Z,52.10
2022-12-19T14:17:30.394Z,43.28
2022-12-19T14:20:15.489Z,50.22
2022-12-19T14:22:45.602Z,48.67
2022-12-19T14:27:51.729Z,53.03
2022-12-19T14:28:24.405Z,49.63
2022-12-19T14:30:58.968Z,51.60
2022-12-19T14:33:43.684Z,52.20
2022-12-19T14:36:26.207Z,47.67
2022-12-19T14:39:23.899Z,47.92
2022-12-19T14:42:04.101Z,48.88
2022-12-19T14:52:11.609Z,55.67
2022-12-19T14:52:34.686Z,53.35
2022-12-19T14:54:10.264Z,49.00
2022-12-19T14:54:50.653Z,49.95
2022-12-19T14:58:58.609Z,50.78
2022-12-19T15:01:29.575Z,51.78
2022-12-19T15:04:48.887Z,50.73
2022-12-19T15:07:09.248Z,50.75
2022-12-19T15:11:05.452Z,49.03
2022-12-19T15:14:04.045Z,57.28
2022-12-19T15:15:46.095Z,53.35
2022-12-19T15:18:22.023Z,55.57
2022-12-19T15:20:49.996Z,52.28
2022-12-19T15:23:22.061Z,54.33
2022-12-19T15:26:07.697Z,50.88
2022-12-19T15:28:39.425Z,51.92
2022-12-19T15:31:18.117Z,54.20
2022-12-19T15:34:32.176Z,51.17
2022-12-19T15:36:34.644Z,48.70
2022-12-19T15:39:03.559Z,52.80
2022-12-19T15:41:31.481Z,57.35
2022-12-19T15:44:04.223Z,53.43
2022-12-19T15:46:33.309Z,54.80
2022-12-19T15:49:02.419Z,50.70
2022-12-19T15:51:30.125Z,56.45
2022-12-19T15:54:22.188Z,59.20
2022-12-19T15:56:47.853Z,57.70
2022-12-19T15:59:24.383Z,54.13
2022-12-19T16:01:52.894Z,54.50
2022-12-19T16:04:23.153Z,56.10
2022-12-19T16:06:50.811Z,55.15
2022-12-19T16:09:21.048Z,51.40
2022-12-19T16:11:48.843Z,58.85
2022-12-19T16:14:17.078Z,56.38
2022-12-19T16:16:50.077Z,51.75
2022-12-19T16:19:26.518Z,52.88
2022-12-19T16:21:54.878Z,56.97
2022-12-19T16:24:23.060Z,52.28
2022-12-19T16:26:54.321Z,50.10
2022-12-19T16:29:24.972Z,53.42
2022-12-19T16:31:52.583Z,52.38
2022-12-19T16:34:22.508Z,48.13
2022-12-19T16:36:52.007Z,53.70
2022-12-19T16:39:19.597Z,53.30
2022-12-19T16:41:47.809Z,50.92
2022-12-19T16:44:20.213Z,57.92
2022-12-19T16:46:51.057Z,60.00
2022-12-19T16:49:22.708Z,59.78
2022-12-19T16:51:52.327Z,56.70
2022-12-19T16:54:21.639Z,46.85
2022-12-19T16:56:50.735Z,55.38
2022-12-19T16:59:21.367Z,60.07
2022-12-19T17:01:50.894Z,52.10
2022-12-19T17:04:21.447Z,55.97
2022-12-19T17:06:51.725Z,50.53
2022-12-19T17:09:23.125Z,52.10
2022-12-19T17:11:53.939Z,44.73
2022-12-19T17:14:23.538Z,46.20
2022-12-19T17:16:54.999Z,43.55
2022-12-19T17:19:24.663Z,41.65
2022-12-19T17:21:53.791Z,44.30
2022-12-19T17:24:21.359Z,39.57
2022-12-19T17:26:48.897Z,43.88
2022-12-19T17:29:16.508Z,37.30
2022-12-19T17:31:44.273Z,35.42
2022-12-19T17:34:18.731Z,37.15
2022-12-19T17:36:46.499Z,35.27
2022-12-19T17:39:23.879Z,40.55
2022-12-19T17:41:52.078Z,36.78
2022-12-19T17:44:19.944Z,31.77
2022-12-19T17:46:48.490Z,32.95
2022-12-19T17:49:18.218Z,35.13
2022-12-19T17:51:52.183Z,31.23
2022-12-19T17:54:19.982Z,30.05
2022-12-19T17:56:48.971Z,29.92
2022-12-19T17:59:16.504Z,37.85
2022-12-19T18:01:46.854Z,33.27
2022-12-19T18:04:17.399Z,30.48
2022-12-19T18:06:45.519Z,28.92
2022-12-19T18:09:19.662Z,29.65
2022-12-19T18:11:49.374Z,28.27
2022-12-19T18:14:17.328Z,30.33
2022-12-19T18:16:45.867Z,32.67
2022-12-19T18:19:18.155Z,30.92
2022-12-19T18:21:46.000Z,27.38
2022-12-19T18:24:14.689Z,28.45
2022-12-19T18:26:42.227Z,27.50
2022-12-19T18:29:11.466Z,28.23
2022-12-19T18:31:43.468Z,33.65
2022-12-19T18:34:20.008Z,28.27
2022-12-19T18:36:47.589Z,30.67
2022-12-19T18:39:21.475Z,32.27
2022-12-19T18:41:49.955Z,30.52
2022-12-19T18:44:19.150Z,28.60
2022-12-19T18:46:49.576Z,30.35
2022-12-19T18:49:18.217Z,29.27
2022-12-19T18:51:46.182Z,30.00
2022-12-19T18:54:14.782Z,29.85
2022-12-19T18:56:42.412Z,28.80
2022-12-19T18:59:10.919Z,28.23
2022-12-19T19:01:42.863Z,26.90
2022-12-19T19:04:12.988Z,33.67
2022-12-19T19:06:46.742Z,29.55
2022-12-19T19:09:19.233Z,27.60
2022-12-19T19:11:49.477Z,27.10
2022-12-19T19:14:17.039Z,25.67
2022-12-19T19:16:46.065Z,25.17
2022-12-19T19:19:17.413Z,27.52
2022-12-19T19:21:45.232Z,27.45
2022-12-19T19:24:15.742Z,26.70
2022-12-19T19:26:43.396Z,24.02
2022-12-19T19:29:10.945Z,28.87
2022-12-19T19:31:44.487Z,27.85
2022-12-19T19:34:16.298Z,26.20
2022-12-19T19:36:49.311Z,27.27
2022-12-19T19:39:19.709Z,26.13
2022-12-19T19:41:47.235Z,25.83
2022-12-19T19:44:14.790Z,29.90
2022-12-19T19:46:42.604Z,27.60
2022-12-19T19:49:10.388Z,26.10
2022-12-19T19:51:39.458Z,27.45
2022-12-19T19:54:07.097Z,27.67
2022-12-19T19:56:34.931Z,27.05
2022-12-19T19:59:02.583Z,28.58
2022-12-19T20:01:30.174Z,31.77
2022-12-19T20:03:57.954Z,28.48
2022-12-19T20:06:25.949Z,25.73
2022-12-19T20:08:54.886Z,24.50
2022-12-19T20:11:22.475Z,24.77
2022-12-19T20:13:50.037Z,25.92
2022-12-19T20:16:19.607Z,24.17
2022-12-19T20:18:49.814Z,23.47
2022-12-19T20:21:19.650Z,24.13
2022-12-19T20:23:47.167Z,23.45
2022-12-19T20:26:17.558Z,25.63
2022-12-19T20:28:48.921Z,19.63
2022-12-19T20:31:18.226Z,22.70
2022-12-19T20:33:46.180Z,22.27
2022-12-19T20:36:14.164Z,22.25
2022-12-19T20:38:42.085Z,22.60
2022-12-19T20:41:09.688Z,23.52
2022-12-19T20:43:38.997Z,23.47
2022-12-19T20:46:08.002Z,21.92
2022-12-19T20:48:35.946Z,24.02
2022-12-19T20:51:05.117Z,23.17
2022-12-19T20:53:33.586Z,23.25
2022-12-19T20:56:02.454Z,20.63
2022-12-19T20:58:32.691Z,22.42
2022-12-19T21:01:07.182Z,19.00
2022-12-19T21:03:35.257Z,21.75
2022-12-19T21:06:03.372Z,20.52
2022-12-19T21:08:31.131Z,18.83
2022-12-19T21:11:00.333Z,23.10
2022-12-19T21:13:28.005Z,21.02
2022-12-19T21:15:56.923Z,19.63
2022-12-19T21:18:26.514Z,18.88
2022-12-19T21:20:54.231Z,18.33
2022-12-19T21:23:22.471Z,22.85
2022-12-19T21:25:50.244Z,20.00
2022-12-19T21:28:18.149Z,15.75
2022-12-19T21:30:45.839Z,18.30
2022-12-19T21:33:13.406Z,18.53
2022-12-19T21:35:42.307Z,17.48
2022-12-19T21:38:09.807Z,20.63
2022-12-19T21:40:37.352Z,18.25
2022-12-19T21:43:11.424Z,18.85
2022-12-19T21:45:39.979Z,18.33
2022-12-19T21:48:07.627Z,17.50
2022-12-19T21:50:35.310Z,20.65
2022-12-19T21:53:04.249Z,17.90
2022-12-19T21:55:31.768Z,19.38
2022-12-19T21:58:00.555Z,17.97
2022-12-19T22:00:28.213Z,17.70
2022-12-19T22:03:13.282Z,17.45
2022-12-19T22:05:42.268Z,19.77
2022-12-19T22:08:11.923Z,18.85
2022-12-19T22:10:39.887Z,19.07
2022-12-19T22:13:07.436Z,19.02
2022-12-19T22:15:36.653Z,17.00
2022-12-19T22:18:04.532Z,17.13
2022-12-19T22:20:32.037Z,19.48
2022-12-19T22:22:59.591Z,17.33
2022-12-19T22:25:28.433Z,18.05
2022-12-19T22:27:56.317Z,18.45
2022-12-19T22:30:23.831Z,20.33
2022-12-19T22:32:51.386Z,17.92
2022-12-19T22:35:19.610Z,17.07
2022-12-19T22:37:47.207Z,17.38
2022-12-19T22:40:14.956Z,18.83
2022-12-19T22:42:43.819Z,16.38
2022-12-19T22:45:12.005Z,17.70
2022-12-19T22:47:42.127Z,17.23
2022-12-19T22:50:11.262Z,18.67
2022-12-19T22:52:39.130Z,17.48
2022-12-19T22:55:07.674Z,18.80
2022-12-19T22:57:35.294Z,20.55
2022-12-19T23:00:05.621Z,20.70
2022-12-19T23:02:33.379Z,18.90
2022-12-19T23:05:00.983Z,18.13
2022-12-19T23:07:28.521Z,18.27
2022-12-19T23:09:56.024Z,18.17
2022-12-19T23:12:23.552Z,20.00
2022-12-19T23:14:51.108Z,20.08
2022-12-19T23:17:20.059Z,16.00
2022-12-19T23:19:47.563Z,16.35
2022-12-19T23:22:15.263Z,18.65
2022-12-19T23:24:44.601Z,19.03
2022-12-19T23:27:12.127Z,18.13
2022-12-19T23:29:39.627Z,16.73
2022-12-19T23:32:07.503Z,15.70
2022-12-19T23:34:37.098Z,19.85
2022-12-19T23:37:12.693Z,16.07
2022-12-19T23:39:40.526Z,17.77
2022-12-19T23:42:08.092Z,17.33
2022-12-19T23:44:35.786Z,14.90
2022-12-19T23:47:04.147Z,18.23
2022-12-19T23:49:32.520Z,18.30
2022-12-19T23:52:01.875Z,17.73
2022-12-19T23:54:29.467Z,18.90
2022-12-19T23:56:57.062Z,16.88
2022-12-19T23:59:24.594Z,17.63
